Terminal Aerodrome Forecast
Issued by NWS

Home | Current Version | Previous Version | Text Only | Print | Product List | Glossary On
Versions: 1 2 3 4 5 6 7 8 9 10 11 12 13 14 15
000
FTUS46 KMFR 191700 CCA
TAFLMT
TAF COR
KLMT 191750Z 1918/2018 VRB03KT P6SM SKC
     FM192000 02007KT P6SM FEW100
     FM200400 VRB03KT P6SM SKC=

USA.gov is the U.S. government's official web portal to all federal, state and local government web resources and services.